createdAt,value
2018-06-01T00:00:34.897Z,29.10
2018-06-01T00:01:34.888Z,28.70
2018-06-01T00:02:34.917Z,30.00
2018-06-01T00:03:34.902Z,29.50
2018-06-01T00:04:34.935Z,29.30
2018-06-01T00:05:34.881Z,29.10
2018-06-01T00:06:34.907Z,30.00
2018-06-01T00:07:34.865Z,29.40
2018-06-01T00:08:34.934Z,29.20
2018-06-01T00:09:34.338Z,29.70
2018-06-01T00:10:34.331Z,29.70
2018-06-01T00:11:34.918Z,31.30
2018-06-01T00:12:34.916Z,31.10
2018-06-01T00:13:34.935Z,30.80
2018-06-01T00:14:34.850Z,30.90
2018-06-01T00:15:34.290Z,30.30
2018-06-01T00:16:34.606Z,30.20
2018-06-01T00:17:35.145Z,30.60
2018-06-01T00:18:34.908Z,32.40
2018-06-01T00:19:34.948Z,31.20
2018-06-01T00:20:34.938Z,31.10
2018-06-01T00:21:34.873Z,30.70
2018-06-01T00:22:34.875Z,31.00
2018-06-01T00:23:34.930Z,32.10
2018-06-01T00:24:34.928Z,31.30
2018-06-01T00:25:34.934Z,30.30
2018-06-01T00:26:34.916Z,31.00
2018-06-01T00:27:34.933Z,31.90
2018-06-01T00:28:34.958Z,32.70
2018-06-01T00:29:34.907Z,32.20
2018-06-01T00:30:34.916Z,31.80
2018-06-01T00:31:34.867Z,31.80
2018-06-01T00:32:37.484Z,32.50
2018-06-01T00:33:34.887Z,31.50
2018-06-01T00:34:34.969Z,31.80
2018-06-01T00:35:36.931Z,33.50
2018-06-01T00:36:34.918Z,33.20
2018-06-01T00:37:34.826Z,31.90
2018-06-01T00:38:34.826Z,32.00
2018-06-01T00:39:34.881Z,33.10
2018-06-01T00:40:34.344Z,32.90
2018-06-01T00:41:34.883Z,31.90
2018-06-01T00:42:34.368Z,31.70
2018-06-01T00:43:34.907Z,31.30
2018-06-01T00:44:34.910Z,31.40
2018-06-01T00:45:34.903Z,32.30
2018-06-01T00:46:34.902Z,32.50
2018-06-01T00:47:34.908Z,33.30
2018-06-01T00:48:34.364Z,32.80
2018-06-01T00:49:34.887Z,32.00
2018-06-01T00:50:34.931Z,33.80
2018-06-01T00:51:34.915Z,35.40
2018-06-01T00:52:34.949Z,34.80
2018-06-01T00:53:34.917Z,34.80
2018-06-01T00:54:34.939Z,35.40
2018-06-01T00:55:34.912Z,36.20
2018-06-01T00:56:34.928Z,34.70
2018-06-01T00:57:34.926Z,36.60
2018-06-01T00:58:34.948Z,34.20
2018-06-01T00:59:34.965Z,37.10
2018-06-01T01:00:34.918Z,36.30
2018-06-01T01:01:34.939Z,36.30
2018-06-01T01:02:34.431Z,37.00
2018-06-01T01:03:34.913Z,35.50
2018-06-01T01:04:34.969Z,35.00
2018-06-01T01:05:34.967Z,34.50
2018-06-01T01:06:34.957Z,36.30
2018-06-01T01:07:34.473Z,36.80
2018-06-01T01:08:34.843Z,35.30
2018-06-01T01:09:34.918Z,36.80
2018-06-01T01:10:34.874Z,37.20
2018-06-01T01:11:34.484Z,36.20
2018-06-01T01:12:34.913Z,38.40
2018-06-01T01:13:34.902Z,35.80
2018-06-01T01:14:34.903Z,37.80
2018-06-01T01:15:34.444Z,37.60
2018-06-01T01:16:34.939Z,36.60
2018-06-01T01:17:34.947Z,36.30
2018-06-01T01:18:34.912Z,37.30
2018-06-01T01:19:34.879Z,37.10
2018-06-01T01:20:34.894Z,37.20
2018-06-01T01:21:34.916Z,38.50
2018-06-01T01:22:34.901Z,37.50
2018-06-01T01:23:34.881Z,36.40
2018-06-01T01:24:34.930Z,36.90
2018-06-01T01:25:34.950Z,37.70
2018-06-01T01:26:34.932Z,37.30
2018-06-01T01:27:34.490Z,37.30
2018-06-01T01:28:34.933Z,36.20
2018-06-01T01:29:34.506Z,36.30
2018-06-01T01:30:34.978Z,38.30
2018-06-01T01:31:34.963Z,37.80
2018-06-01T01:32:34.972Z,36.70
2018-06-01T01:33:34.966Z,38.30
2018-06-01T01:34:34.974Z,38.50
2018-06-01T01:35:34.895Z,38.00
2018-06-01T01:36:34.913Z,38.00
2018-06-01T01:37:34.928Z,38.00
2018-06-01T01:38:41.456Z,37.50
2018-06-01T01:39:34.904Z,37.50
2018-06-01T01:40:34.921Z,37.80
2018-06-01T01:41:34.912Z,37.40
2018-06-01T01:42:34.914Z,37.80
2018-06-01T01:43:34.918Z,37.50
2018-06-01T01:44:34.558Z,37.30
2018-06-01T01:45:35.159Z,38.00
2018-06-01T01:46:34.966Z,37.50
2018-06-01T01:47:34.970Z,37.70
2018-06-01T01:48:42.263Z,37.20
2018-06-01T01:49:37.132Z,37.70
2018-06-01T01:50:34.958Z,37.80
2018-06-01T01:51:37.055Z,37.70
2018-06-01T01:52:34.960Z,37.70
2018-06-01T01:53:34.977Z,39.20
2018-06-01T01:54:36.969Z,39.80
2018-06-01T01:55:37.499Z,38.60
2018-06-01T01:56:35.030Z,37.90
2018-06-01T01:57:35.692Z,39.80
2018-06-01T01:58:35.958Z,38.90
2018-06-01T01:59:36.984Z,40.30
2018-06-01T02:00:34.626Z,37.60
2018-06-01T02:01:45.414Z,38.50
2018-06-01T02:02:35.029Z,39.30
2018-06-01T02:03:34.919Z,38.30
2018-06-01T02:04:34.924Z,39.30
2018-06-01T02:05:34.970Z,37.40
2018-06-01T02:06:34.962Z,38.60
2018-06-01T02:07:34.971Z,39.10
2018-06-01T02:08:34.942Z,39.20
2018-06-01T02:09:36.735Z,39.60
2018-06-01T02:10:34.977Z,39.90
2018-06-01T02:11:35.000Z,38.70
2018-06-01T02:12:34.969Z,38.20
2018-06-01T02:13:34.965Z,40.10
2018-06-01T02:14:37.251Z,40.10
2018-06-01T02:15:34.923Z,39.80
2018-06-01T02:16:35.144Z,40.50
2018-06-01T02:17:36.991Z,40.10
2018-06-01T02:18:35.158Z,42.00
2018-06-01T02:19:34.975Z,40.30
2018-06-01T02:20:35.156Z,41.00
2018-06-01T02:21:34.959Z,41.00
2018-06-01T02:22:36.839Z,43.10
2018-06-01T02:23:34.975Z,44.00
2018-06-01T02:24:34.651Z,42.90
2018-06-01T02:25:37.800Z,41.60
2018-06-01T02:26:35.958Z,42.10
2018-06-01T02:27:35.158Z,43.10
2018-06-01T02:28:35.185Z,41.80
2018-06-01T02:29:35.007Z,42.30
2018-06-01T02:30:34.690Z,43.70
2018-06-01T02:31:35.166Z,41.90
2018-06-01T02:32:34.962Z,41.30
2018-06-01T02:33:35.152Z,42.20
2018-06-01T02:34:34.936Z,42.40
2018-06-01T02:35:34.982Z,42.50
2018-06-01T02:36:34.976Z,42.50
2018-06-01T02:37:34.921Z,43.10
2018-06-01T02:38:34.984Z,42.90
2018-06-01T02:39:34.990Z,42.60
2018-06-01T02:40:34.986Z,44.30
2018-06-01T02:41:35.010Z,44.60
2018-06-01T02:42:34.968Z,44.50
2018-06-01T02:43:35.035Z,44.30
2018-06-01T02:44:34.987Z,44.40
2018-06-01T02:45:35.000Z,43.30
2018-06-01T02:46:34.989Z,43.80
2018-06-01T02:47:35.037Z,42.10
2018-06-01T02:48:35.159Z,42.90
2018-06-01T02:49:35.046Z,42.40
2018-06-01T02:50:35.044Z,42.90
2018-06-01T02:51:34.999Z,43.90
2018-06-01T02:52:36.067Z,41.50
2018-06-01T02:53:34.987Z,43.60
2018-06-01T02:54:36.886Z,42.70
2018-06-01T02:55:36.917Z,43.00
2018-06-01T02:56:34.968Z,43.30
2018-06-01T02:57:34.938Z,42.70
2018-06-01T02:58:34.963Z,44.10
2018-06-01T02:59:34.947Z,44.20
2018-06-01T03:00:34.983Z,43.80
2018-06-01T03:01:37.795Z,43.20
2018-06-01T03:02:35.189Z,43.30
2018-06-01T03:03:34.951Z,43.70
2018-06-01T03:04:35.005Z,44.50
2018-06-01T03:05:34.923Z,43.50
2018-06-01T03:06:37.191Z,43.30
2018-06-01T03:07:34.952Z,44.70
2018-06-01T03:08:34.968Z,44.00
2018-06-01T03:09:34.663Z,43.30
2018-06-01T03:10:34.999Z,44.60
2018-06-01T03:11:35.166Z,43.90
2018-06-01T03:12:35.085Z,42.60
2018-06-01T03:13:36.993Z,44.60
2018-06-01T03:14:36.999Z,43.50
2018-06-01T03:15:35.113Z,43.80
2018-06-01T03:16:35.144Z,43.80
2018-06-01T03:17:35.079Z,44.00
2018-06-01T03:18:35.084Z,46.00
2018-06-01T03:19:36.564Z,44.60
2018-06-01T03:20:35.122Z,44.80
2018-06-01T03:21:35.004Z,43.60
2018-06-01T03:22:34.953Z,44.00
2018-06-01T03:23:34.992Z,44.20
2018-06-01T03:24:34.941Z,45.50
2018-06-01T03:25:34.690Z,43.90
2018-06-01T03:26:34.991Z,44.50
2018-06-01T03:27:34.990Z,43.60
2018-06-01T03:28:35.028Z,42.60
2018-06-01T03:29:35.048Z,42.90
2018-06-01T03:30:36.992Z,44.80
2018-06-01T03:31:35.058Z,43.30
2018-06-01T03:32:35.031Z,42.70
2018-06-01T03:33:35.062Z,46.10
2018-06-01T03:34:35.067Z,42.90
2018-06-01T03:35:35.061Z,44.20
2018-06-01T03:36:35.037Z,44.80
2018-06-01T03:37:35.061Z,45.20
2018-06-01T03:38:35.027Z,43.90
2018-06-01T03:39:35.111Z,45.80
2018-06-01T03:40:35.042Z,45.60
2018-06-01T03:41:35.184Z,45.90
2018-06-01T03:42:35.111Z,44.20
2018-06-01T03:43:36.029Z,44.30
2018-06-01T03:44:35.093Z,43.50
2018-06-01T03:45:37.182Z,43.20
2018-06-01T03:46:37.100Z,44.20
2018-06-01T03:47:35.185Z,44.30
2018-06-01T03:49:35.043Z,44.10
2018-06-01T03:50:35.008Z,44.80
2018-06-01T03:51:35.113Z,43.60
2018-06-01T03:52:35.053Z,43.60
2018-06-01T03:53:35.232Z,41.80
2018-06-01T03:54:35.016Z,44.60
2018-06-01T03:55:35.105Z,43.60
2018-06-01T03:56:35.092Z,43.10
2018-06-01T03:57:35.549Z,43.30
2018-06-01T03:58:35.198Z,44.50
2018-06-01T03:59:37.190Z,43.80
2018-06-01T04:00:35.114Z,47.00
2018-06-01T04:01:34.974Z,44.50
2018-06-01T04:02:35.089Z,45.70
2018-06-01T04:03:35.107Z,46.00
2018-06-01T04:04:35.082Z,44.10
2018-06-01T04:05:35.118Z,42.20
2018-06-01T04:06:36.073Z,44.80
2018-06-01T04:07:36.069Z,44.50
2018-06-01T04:08:37.227Z,44.30
2018-06-01T04:09:37.204Z,42.90
2018-06-01T04:10:35.126Z,43.30
2018-06-01T04:11:37.204Z,45.10
2018-06-01T04:12:35.138Z,42.10
2018-06-01T04:13:35.166Z,43.00
2018-06-01T04:14:35.156Z,43.10
2018-06-01T04:15:35.165Z,43.90
2018-06-01T04:16:35.327Z,43.30
2018-06-01T04:17:35.885Z,43.60
2018-06-01T04:18:35.207Z,43.60
2018-06-01T04:19:35.155Z,44.10
2018-06-01T04:20:35.201Z,42.10
2018-06-01T04:21:35.244Z,44.30
2018-06-01T04:22:35.218Z,43.30
2018-06-01T04:23:35.125Z,41.90
2018-06-01T04:24:34.789Z,42.20
2018-06-01T04:25:35.050Z,42.50
2018-06-01T04:26:35.052Z,42.70
2018-06-01T04:27:35.127Z,42.60
2018-06-01T04:28:35.129Z,41.60
2018-06-01T04:29:37.165Z,40.20
2018-06-01T04:30:35.129Z,42.30
2018-06-01T04:31:35.130Z,42.00
2018-06-01T04:32:35.208Z,42.00
2018-06-01T04:33:34.871Z,41.90
2018-06-01T04:34:35.096Z,40.80
2018-06-01T04:35:35.068Z,42.40
2018-06-01T04:36:34.818Z,43.60
2018-06-01T04:37:35.140Z,42.20
2018-06-01T04:38:35.217Z,41.30
2018-06-01T04:39:35.186Z,41.00
2018-06-01T04:40:35.743Z,40.30
2018-06-01T04:41:35.291Z,39.90
2018-06-01T04:42:35.022Z,40.00
2018-06-01T04:43:35.069Z,39.80
2018-06-01T04:44:35.244Z,39.20
2018-06-01T04:45:35.233Z,41.10
2018-06-01T04:46:35.028Z,40.40
2018-06-01T04:47:35.227Z,39.40
2018-06-01T04:48:35.295Z,38.80
2018-06-01T04:49:35.317Z,36.90
2018-06-01T04:50:35.315Z,37.80
2018-06-01T04:51:35.914Z,38.00
2018-06-01T04:52:35.204Z,38.40
2018-06-01T04:53:35.230Z,38.20
2018-06-01T04:54:35.238Z,38.90
2018-06-01T04:55:35.708Z,36.50
2018-06-01T04:56:35.226Z,36.30
2018-06-01T04:57:35.304Z,35.60
2018-06-01T04:58:35.270Z,36.20
2018-06-01T04:59:37.071Z,35.90
2018-06-01T05:00:35.299Z,36.10
2018-06-01T05:01:34.894Z,36.90
2018-06-01T05:02:35.630Z,34.20
2018-06-01T05:03:35.174Z,36.00
2018-06-01T05:04:35.707Z,34.60
2018-06-01T05:05:35.239Z,35.60
2018-06-01T05:06:35.224Z,36.30
2018-06-01T05:07:35.532Z,35.30
2018-06-01T05:08:35.566Z,35.10
2018-06-01T05:09:36.222Z,35.50
2018-06-01T05:10:35.753Z,33.50
2018-06-01T05:11:37.274Z,34.50
2018-06-01T05:12:35.259Z,34.90
2018-06-01T05:13:35.509Z,34.80
2018-06-01T05:14:35.263Z,34.60
2018-06-01T05:15:35.264Z,34.90
2018-06-01T05:16:35.594Z,35.80
2018-06-01T05:17:35.798Z,34.30
2018-06-01T05:18:35.511Z,33.90
2018-06-01T05:19:35.568Z,34.90
2018-06-01T05:20:35.508Z,35.20
2018-06-01T05:21:35.768Z,33.80
2018-06-01T05:22:34.895Z,35.10
2018-06-01T05:23:35.773Z,34.70
2018-06-01T05:24:35.516Z,35.60
2018-06-01T05:25:35.721Z,34.90
2018-06-01T05:26:35.582Z,34.90
2018-06-01T05:27:35.620Z,35.30
2018-06-01T05:28:35.565Z,33.90
2018-06-01T05:29:35.557Z,32.40
2018-06-01T05:30:37.316Z,34.70
2018-06-01T05:31:37.366Z,34.80
2018-06-01T05:32:35.508Z,33.40
2018-06-01T05:33:35.549Z,34.20
2018-06-01T05:34:34.866Z,32.60
2018-06-01T05:35:35.536Z,33.20
2018-06-01T05:36:35.770Z,33.20
2018-06-01T05:37:35.733Z,33.90
2018-06-01T05:38:36.088Z,32.70
2018-06-01T05:39:35.777Z,32.60
2018-06-01T05:40:35.271Z,32.80
2018-06-01T05:41:35.807Z,32.50
2018-06-01T05:42:35.752Z,33.70
2018-06-01T05:43:35.280Z,34.10
2018-06-01T05:44:35.761Z,34.00
2018-06-01T05:45:35.732Z,32.90
2018-06-01T05:46:36.092Z,34.20
2018-06-01T05:47:35.328Z,33.70
2018-06-01T05:48:35.836Z,33.40
2018-06-01T05:49:35.800Z,34.10
2018-06-01T05:50:35.755Z,33.20
2018-06-01T05:51:35.787Z,33.40
2018-06-01T05:52:35.777Z,33.60
2018-06-01T05:53:35.018Z,34.10
2018-06-01T05:54:35.727Z,34.60
2018-06-01T05:55:35.776Z,33.40
2018-06-01T05:56:35.277Z,33.00
2018-06-01T05:57:35.534Z,32.40
2018-06-01T05:58:35.783Z,32.70
2018-06-01T05:59:36.093Z,32.80
2018-06-01T06:00:35.834Z,33.70
2018-06-01T06:01:35.819Z,34.70
2018-06-01T06:02:37.567Z,34.00
2018-06-01T06:03:35.560Z,32.90
2018-06-01T06:04:35.842Z,32.50
2018-06-01T06:05:36.234Z,33.00
2018-06-01T06:06:35.625Z,33.90
2018-06-01T06:07:36.222Z,33.10
2018-06-01T06:08:35.617Z,32.50
2018-06-01T06:09:35.040Z,33.00
2018-06-01T06:10:35.583Z,32.80
2018-06-01T06:11:35.060Z,32.50
2018-06-01T06:12:35.069Z,32.30
2018-06-01T06:13:35.711Z,34.10
2018-06-01T06:14:35.711Z,32.90
2018-06-01T06:15:35.111Z,33.00
2018-06-01T06:16:35.292Z,33.40
2018-06-01T06:17:35.786Z,33.70
2018-06-01T06:18:35.784Z,34.30
2018-06-01T06:19:35.499Z,33.30
2018-06-01T06:20:35.651Z,33.40
2018-06-01T06:21:35.606Z,33.30
2018-06-01T06:22:36.256Z,33.40
2018-06-01T06:23:35.743Z,32.60
2018-06-01T06:24:35.750Z,32.30
2018-06-01T06:25:35.875Z,32.20
2018-06-01T06:26:35.817Z,31.30
2018-06-01T06:27:35.536Z,31.20
2018-06-01T06:28:35.832Z,29.30
2018-06-01T06:29:35.617Z,28.80
2018-06-01T06:30:35.811Z,31.10
2018-06-01T06:31:35.056Z,32.00
2018-06-01T06:32:35.357Z,30.70
2018-06-01T06:33:35.713Z,29.70
2018-06-01T06:34:35.923Z,29.90
2018-06-01T06:35:35.797Z,29.70
2018-06-01T06:36:35.166Z,30.50
2018-06-01T06:37:35.588Z,29.10
2018-06-01T06:38:35.557Z,29.00
2018-06-01T06:39:35.864Z,28.70
2018-06-01T06:40:35.758Z,27.30
2018-06-01T06:41:35.820Z,28.10
2018-06-01T06:42:35.854Z,27.80
2018-06-01T06:43:35.256Z,28.30
2018-06-01T06:44:35.985Z,28.60
2018-06-01T06:45:35.156Z,28.70
2018-06-01T06:46:35.846Z,27.60
2018-06-01T06:47:35.601Z,29.20
2018-06-01T06:48:35.796Z,29.20
2018-06-01T06:49:35.809Z,28.70
2018-06-01T06:50:35.538Z,27.10
2018-06-01T06:51:35.556Z,28.10
2018-06-01T06:52:35.543Z,27.80
2018-06-01T06:53:35.555Z,28.10
2018-06-01T06:54:35.807Z,27.40
2018-06-01T06:55:35.890Z,26.90
2018-06-01T06:56:36.285Z,26.30
2018-06-01T06:57:35.558Z,25.30
2018-06-01T06:58:35.561Z,27.80
2018-06-01T06:59:35.804Z,29.40
2018-06-01T07:00:35.854Z,30.70
2018-06-01T07:01:35.809Z,29.80
2018-06-01T07:02:36.126Z,29.90
2018-06-01T07:03:35.849Z,31.10
2018-06-01T07:04:35.543Z,30.40
2018-06-01T07:05:35.550Z,32.30
2018-06-01T07:06:35.531Z,33.30
2018-06-01T07:07:35.854Z,33.60
2018-06-01T07:08:35.573Z,31.20
2018-06-01T07:09:35.635Z,31.20
2018-06-01T07:10:35.684Z,31.40
2018-06-01T07:11:49.772Z,32.00
2018-06-01T07:12:35.850Z,32.30
2018-06-01T07:13:35.807Z,32.60
2018-06-01T07:14:35.768Z,33.70
2018-06-01T07:15:35.622Z,32.80
2018-06-01T07:16:36.904Z,32.00
2018-06-01T07:17:35.811Z,34.00
2018-06-01T07:18:35.820Z,32.70
2018-06-01T07:19:35.580Z,31.40
2018-06-01T07:20:35.539Z,33.30
2018-06-01T07:21:35.642Z,32.60
2018-06-01T07:22:35.817Z,34.60
2018-06-01T07:23:35.391Z,33.70
2018-06-01T07:24:35.650Z,34.00
2018-06-01T07:25:35.578Z,34.80
2018-06-01T07:26:35.817Z,34.20
2018-06-01T07:27:35.845Z,35.50
2018-06-01T07:28:36.205Z,33.10
2018-06-01T07:29:36.298Z,34.60
2018-06-01T07:30:35.800Z,34.50
2018-06-01T07:31:35.779Z,34.80
2018-06-01T07:32:35.780Z,34.40
2018-06-01T07:33:36.134Z,34.00
2018-06-01T07:34:35.818Z,34.80
2018-06-01T07:35:35.310Z,35.20
2018-06-01T07:36:35.668Z,35.20
2018-06-01T07:37:36.358Z,35.60
2018-06-01T07:38:36.273Z,33.60
2018-06-01T07:39:35.635Z,35.30
2018-06-01T07:40:35.538Z,37.00
2018-06-01T07:41:35.820Z,35.90
2018-06-01T07:42:35.863Z,36.20
2018-06-01T07:43:35.800Z,36.20
2018-06-01T07:44:35.838Z,36.90
2018-06-01T07:45:35.786Z,35.40
2018-06-01T07:46:34.245Z,35.10
2018-06-01T07:47:36.135Z,35.00
2018-06-01T07:48:36.132Z,35.90
2018-06-01T07:49:35.677Z,35.60
2018-06-01T07:50:35.786Z,34.80
2018-06-01T07:51:35.650Z,34.80
2018-06-01T07:52:35.725Z,33.30
2018-06-01T07:53:35.669Z,32.50
2018-06-01T07:54:36.463Z,33.50
2018-06-01T07:55:36.119Z,34.20
2018-06-01T07:56:35.787Z,33.50
2018-06-01T07:57:35.808Z,34.30
2018-06-01T07:58:36.036Z,34.20
2018-06-01T07:59:35.873Z,34.00
2018-06-01T08:00:36.285Z,34.70
2018-06-01T08:01:35.530Z,33.30
2018-06-01T08:02:35.821Z,34.40
2018-06-01T08:03:35.851Z,34.00
2018-06-01T08:04:35.788Z,33.00
2018-06-01T08:05:35.724Z,35.40
2018-06-01T08:06:35.789Z,36.60
2018-06-01T08:07:36.174Z,38.90
2018-06-01T08:08:35.877Z,40.40
2018-06-01T08:09:35.863Z,41.20
2018-06-01T08:10:35.850Z,43.20
2018-06-01T08:11:35.839Z,43.10
2018-06-01T08:12:35.885Z,44.90
2018-06-01T08:13:36.126Z,44.90
2018-06-01T08:14:35.736Z,46.80
2018-06-01T08:15:35.742Z,47.30
2018-06-01T08:16:36.117Z,46.90
2018-06-01T08:17:36.141Z,45.20
2018-06-01T08:18:36.141Z,45.20
2018-06-01T08:19:35.439Z,44.00
2018-06-01T08:20:36.577Z,44.10
2018-06-01T08:21:36.068Z,45.40
2018-06-01T08:22:35.700Z,46.00
2018-06-01T08:23:37.654Z,44.10
2018-06-01T08:24:36.047Z,43.00
2018-06-01T08:25:35.780Z,43.00
2018-06-01T08:26:36.436Z,43.90
2018-06-01T08:27:36.076Z,45.30
2018-06-01T08:28:36.063Z,45.20
2018-06-01T08:29:36.487Z,44.80
2018-06-01T08:30:35.742Z,43.70
2018-06-01T08:31:35.796Z,44.40
2018-06-01T08:32:35.849Z,45.30
2018-06-01T08:33:36.346Z,45.40
2018-06-01T08:34:35.875Z,46.00
2018-06-01T08:35:35.906Z,46.70
2018-06-01T08:36:36.341Z,46.20
2018-06-01T08:37:35.914Z,46.00
2018-06-01T08:38:36.135Z,46.00
2018-06-01T08:39:35.848Z,46.60
2018-06-01T08:40:36.173Z,46.30
2018-06-01T08:41:35.849Z,45.30
2018-06-01T08:42:35.844Z,48.40
2018-06-01T08:43:36.325Z,45.90
2018-06-01T08:44:50.407Z,46.90
2018-06-01T08:45:36.357Z,48.30
2018-06-01T08:46:35.532Z,46.60
2018-06-01T08:47:36.297Z,47.80
2018-06-01T08:48:36.191Z,46.60
2018-06-01T08:49:35.849Z,46.40
2018-06-01T08:50:36.353Z,45.60
2018-06-01T08:51:35.814Z,46.10
2018-06-01T08:52:36.190Z,45.60
2018-06-01T08:53:36.404Z,46.80
2018-06-01T08:54:35.851Z,47.10
2018-06-01T08:55:36.642Z,47.90
2018-06-01T08:56:36.496Z,47.10
2018-06-01T08:57:36.283Z,45.90
2018-06-01T08:58:36.381Z,47.20
2018-06-01T08:59:36.122Z,48.00
2018-06-01T09:00:36.129Z,46.80
2018-06-01T09:01:36.399Z,48.40
2018-06-01T09:02:36.375Z,47.40
2018-06-01T09:03:36.389Z,46.90
2018-06-01T09:05:39.173Z,49.30
2018-06-01T09:06:38.228Z,49.80
2018-06-01T09:07:37.011Z,50.80
2018-06-01T09:08:36.141Z,49.80
2018-06-01T09:09:36.141Z,48.80
2018-06-01T09:10:36.394Z,47.10
2018-06-01T09:11:36.239Z,46.70
2018-06-01T09:12:36.415Z,48.50
2018-06-01T09:13:36.328Z,48.30
2018-06-01T09:14:36.340Z,48.80
2018-06-01T09:16:38.334Z,46.50
2018-06-01T09:17:38.881Z,44.80
2018-06-01T09:18:39.122Z,46.10
2018-06-01T09:19:36.663Z,45.00
2018-06-01T09:20:35.832Z,45.00
2018-06-01T09:21:35.916Z,46.10
2018-06-01T09:22:36.864Z,45.50
2018-06-01T09:23:36.320Z,44.70
2018-06-01T09:24:36.221Z,46.70
2018-06-01T09:25:36.276Z,46.40
2018-06-01T09:26:35.770Z,46.30
2018-06-01T09:27:36.873Z,45.80
2018-06-01T09:28:36.014Z,44.80
2018-06-01T09:29:36.327Z,45.00
2018-06-01T09:30:38.979Z,44.30
2018-06-01T09:31:36.813Z,42.90
2018-06-01T09:32:36.105Z,42.90
2018-06-01T09:33:36.111Z,43.60
2018-06-01T09:34:36.110Z,40.70
2018-06-01T09:35:36.102Z,42.70
2018-06-01T09:36:36.365Z,41.10
2018-06-01T09:37:36.716Z,39.60
2018-06-01T09:38:35.871Z,38.70
2018-06-01T09:39:36.385Z,40.00
2018-06-01T09:40:36.411Z,39.90
2018-06-01T09:41:36.554Z,39.80
2018-06-01T09:42:36.688Z,41.30
2018-06-01T09:43:36.175Z,39.90
2018-06-01T09:44:35.729Z,40.30
2018-06-01T09:45:36.276Z,40.30
2018-06-01T09:46:35.959Z,40.70
2018-06-01T09:47:35.939Z,40.90
2018-06-01T09:48:36.129Z,42.60
2018-06-01T09:49:36.372Z,43.00
2018-06-01T09:50:36.771Z,43.50
2018-06-01T09:51:35.592Z,41.60
2018-06-01T09:52:35.896Z,43.70
2018-06-01T09:53:36.746Z,43.60
2018-06-01T09:54:36.675Z,42.90
2018-06-01T09:55:36.856Z,43.20
2018-06-01T09:56:36.290Z,43.20
2018-06-01T09:57:38.300Z,40.60
2018-06-01T09:58:38.188Z,41.50
2018-06-01T09:59:35.893Z,39.30
2018-06-01T10:00:38.359Z,41.10
2018-06-01T10:01:36.696Z,41.30
2018-06-01T10:02:36.716Z,39.90
2018-06-01T10:03:35.588Z,37.30
2018-06-01T10:04:50.383Z,34.80
2018-06-01T10:05:35.946Z,34.50
2018-06-01T10:06:35.893Z,33.90
2018-06-01T10:07:35.698Z,33.30
2018-06-01T10:08:35.588Z,34.50
2018-06-01T10:09:35.347Z,35.20
2018-06-01T10:10:35.377Z,34.30
2018-06-01T10:11:35.380Z,34.10
2018-06-01T10:12:36.115Z,34.60
2018-06-01T10:13:35.922Z,35.00
2018-06-01T10:14:35.806Z,36.00
2018-06-01T10:15:35.292Z,36.40
2018-06-01T10:16:35.807Z,36.20
2018-06-01T10:17:35.839Z,35.80
2018-06-01T10:18:35.343Z,37.70
2018-06-01T10:19:35.332Z,37.00
2018-06-01T10:20:35.315Z,38.40
2018-06-01T10:21:35.394Z,40.10
2018-06-01T10:22:36.915Z,37.90
2018-06-01T10:23:35.933Z,38.40
2018-06-01T10:24:36.486Z,41.00
2018-06-01T10:25:36.174Z,42.10
2018-06-01T10:26:36.408Z,42.80
2018-06-01T10:27:36.852Z,43.40
2018-06-01T10:28:36.349Z,44.10
2018-06-01T10:29:38.715Z,43.90
2018-06-01T10:30:36.701Z,42.20
2018-06-01T10:31:36.467Z,43.30
2018-06-01T10:32:36.223Z,40.80
2018-06-01T10:33:36.342Z,40.00
2018-06-01T10:34:36.199Z,42.10
2018-06-01T10:35:46.206Z,38.90
2018-06-01T10:36:42.391Z,38.20
2018-06-01T10:37:42.512Z,38.10
2018-06-01T10:38:36.861Z,36.20
2018-06-01T10:39:36.178Z,37.00
2018-06-01T10:40:36.437Z,38.40
2018-06-01T10:41:36.211Z,38.50
2018-06-01T10:42:36.403Z,37.50
2018-06-01T10:43:36.411Z,39.30
2018-06-01T10:44:39.053Z,36.60
2018-06-01T10:45:36.353Z,35.80
2018-06-01T10:46:36.748Z,30.90
2018-06-01T10:47:36.260Z,33.10
2018-06-01T10:48:37.254Z,31.90
2018-06-01T10:49:36.747Z,32.90
2018-06-01T10:50:36.642Z,33.80
2018-06-01T10:51:36.187Z,30.90
2018-06-01T10:52:38.602Z,28.30
2018-06-01T10:53:36.671Z,29.10
2018-06-01T10:54:38.705Z,29.50
2018-06-01T10:55:36.258Z,29.00
2018-06-01T10:56:36.700Z,28.40
2018-06-01T10:57:36.279Z,29.00
2018-06-01T10:58:38.837Z,27.30
2018-06-01T10:59:37.579Z,28.70
2018-06-01T11:00:36.247Z,28.30
2018-06-01T11:01:42.955Z,27.60
2018-06-01T11:02:36.209Z,28.50
2018-06-01T11:03:36.356Z,28.50
2018-06-01T11:04:36.714Z,29.70
2018-06-01T11:05:35.945Z,29.40
2018-06-01T11:06:38.433Z,28.50
2018-06-01T11:07:37.042Z,29.20
2018-06-01T11:08:36.341Z,27.50
2018-06-01T11:09:36.113Z,28.40
2018-06-01T11:10:36.168Z,28.00
2018-06-01T11:11:36.258Z,26.80
2018-06-01T11:12:36.145Z,26.30
2018-06-01T11:13:36.167Z,27.10
2018-06-01T11:14:36.976Z,26.70
2018-06-01T11:15:36.411Z,25.10
2018-06-01T11:16:35.971Z,24.10
2018-06-01T11:17:36.375Z,27.60
2018-06-01T11:18:36.700Z,29.10
2018-06-01T11:19:36.513Z,28.30
2018-06-01T11:20:36.513Z,27.20
2018-06-01T11:21:36.501Z,26.10
2018-06-01T11:22:36.491Z,27.60
2018-06-01T11:23:36.769Z,28.20
2018-06-01T11:24:36.291Z,28.50
2018-06-01T11:25:36.752Z,27.70
2018-06-01T11:26:38.203Z,27.30
2018-06-01T11:27:36.390Z,26.20
2018-06-01T11:28:38.151Z,26.00
2018-06-01T11:29:36.463Z,24.80
2018-06-01T11:30:37.015Z,26.20
2018-06-01T11:31:36.366Z,24.90
2018-06-01T11:32:43.421Z,24.40
2018-06-01T11:33:36.424Z,24.80
2018-06-01T11:34:38.378Z,24.30
2018-06-01T11:35:36.386Z,23.90
2018-06-01T11:36:42.875Z,24.50
2018-06-01T11:37:37.064Z,25.00
2018-06-01T11:38:36.968Z,24.40
2018-06-01T11:39:36.391Z,25.40
2018-06-01T11:40:37.085Z,24.60
2018-06-01T11:41:38.754Z,24.00
2018-06-01T11:42:36.411Z,24.40
2018-06-01T11:43:37.233Z,24.90
2018-06-01T11:44:36.612Z,22.40
2018-06-01T11:45:36.387Z,23.60
2018-06-01T11:46:36.724Z,24.20
2018-06-01T11:47:36.425Z,23.40
2018-06-01T11:48:36.417Z,23.30
2018-06-01T11:49:36.800Z,23.30
2018-06-01T11:50:36.432Z,22.60
2018-06-01T11:51:38.498Z,21.70
2018-06-01T11:52:37.931Z,22.20
2018-06-01T11:53:36.360Z,20.30
2018-06-01T11:54:39.188Z,21.50
2018-06-01T11:55:36.392Z,21.10
2018-06-01T11:56:38.750Z,20.80
2018-06-01T11:57:36.967Z,21.20
2018-06-01T11:58:36.896Z,20.00
2018-06-01T11:59:36.932Z,20.80
2018-06-01T12:00:36.706Z,20.40
2018-06-01T12:02:36.934Z,20.20
2018-06-01T12:03:37.245Z,19.40
2018-06-01T12:04:36.915Z,19.70
2018-06-01T12:05:36.997Z,21.10
2018-06-01T12:06:37.215Z,19.30
2018-06-01T12:07:37.224Z,19.30
2018-06-01T12:08:37.695Z,20.50
2018-06-01T12:09:37.393Z,20.30
2018-06-01T12:10:36.708Z,20.60
2018-06-01T12:11:36.693Z,19.00
2018-06-01T12:12:36.445Z,19.50
2018-06-01T12:13:44.234Z,19.00
2018-06-01T12:14:36.698Z,17.10
2018-06-01T12:15:36.976Z,16.00
2018-06-01T12:16:36.946Z,16.10
2018-06-01T12:17:36.779Z,15.20
2018-06-01T12:18:36.711Z,16.10
2018-06-01T12:19:36.161Z,15.70
2018-06-01T12:20:38.577Z,14.80
2018-06-01T12:21:37.102Z,14.70
2018-06-01T12:22:37.277Z,15.30
2018-06-01T12:24:13.618Z,15.10
2018-06-01T12:24:38.938Z,14.10
2018-06-01T12:25:36.587Z,14.20
2018-06-01T12:26:43.470Z,14.10
2018-06-01T12:27:36.673Z,17.30
2018-06-01T12:28:38.257Z,18.10
2018-06-01T12:29:36.686Z,19.50
2018-06-01T12:30:43.058Z,18.10
2018-06-01T12:31:37.945Z,18.00
2018-06-01T12:32:37.278Z,17.70
2018-06-01T12:33:36.957Z,19.30
2018-06-01T12:34:36.913Z,19.10
2018-06-01T12:35:38.945Z,17.50
2018-06-01T12:36:36.915Z,17.50
2018-06-01T12:37:37.304Z,17.10
2018-06-01T12:38:36.912Z,17.00
2018-06-01T12:39:37.148Z,16.10
2018-06-01T12:40:37.655Z,16.90
2018-06-01T12:41:36.686Z,18.50
2018-06-01T12:42:36.955Z,17.30
2018-06-01T12:43:37.992Z,19.20
2018-06-01T12:44:38.975Z,17.60
2018-06-01T12:45:36.867Z,17.20
2018-06-01T12:46:38.930Z,18.10
2018-06-01T12:47:37.254Z,17.20
2018-06-01T12:48:37.297Z,17.60
2018-06-01T12:49:36.628Z,17.50
2018-06-01T12:50:36.801Z,16.60
2018-06-01T12:51:36.763Z,17.80
2018-06-01T12:52:37.264Z,18.40
2018-06-01T12:53:37.314Z,18.40
2018-06-01T12:54:37.388Z,17.60
2018-06-01T12:55:36.956Z,17.40
2018-06-01T12:56:37.351Z,16.70